Time;durP1;ratioP1;P1;durP2;ratioP2;P2;SDS_P1;SDS_P2;PMS_P1;PMS_P2;Temp;Humidity;BMP_temperature;BMP_pressure;BME280_temperature;BME280_humidity;BME280_pressure;Samples;Min_cycle;Max_cycle;Signal;HPM_P1;HPM_P2
2023/10/17 00:01:34;;;;;;;8.33;4.43;;;;;;;9.19;50.47;97623.22;5038261;28;20422;-68
2023/10/17 00:04:12;;;;;;;5.67;4.03;;;;;;;9.19;50.22;97607.53;5032513;28;20438;-69
2023/10/17 00:06:37;;;;;;;4.33;3.43;;;;;;;9.17;50.55;97609.47;5023772;28;20450;-69
2023/10/17 00:09:06;;;;;;;6.23;3.83;;;;;;;9.20;49.80;97604.78;5034124;28;20492;-69
2023/10/17 00:11:44;;;;;;;6.33;4.20;;;;;;;9.28;49.74;97604.13;5032622;28;20618;-69
2023/10/17 00:14:11;;;;;;;5.13;4.40;;;;;;;9.24;50.10;97609.75;5028272;28;20430;-70
2023/10/17 00:16:37;;;;;;;4.23;3.83;;;;;;;9.20;49.83;97598.69;5037943;28;20989;-70
2023/10/17 00:19:09;;;;;;;4.93;4.03;;;;;;;9.05;50.39;97596.50;5027937;28;20443;-68
2023/10/17 00:21:39;;;;;;;4.60;3.80;;;;;;;9.10;50.22;97593.47;5024990;28;20831;-68
2023/10/17 00:24:08;;;;;;;5.47;4.13;;;;;;;9.17;49.80;97578.06;5027802;28;20530;-69
2023/10/17 00:26:37;;;;;;;4.23;3.83;;;;;;;9.09;49.87;97570.91;5027447;28;20430;-70
2023/10/17 00:29:07;;;;;;;3.93;3.53;;;;;;;9.11;50.21;97562.91;5027748;28;20450;-69
2023/10/17 00:31:35;;;;;;;5.27;4.10;;;;;;;9.13;50.18;97550.53;5028335;28;20439;-69
2023/10/17 00:34:01;;;;;;;4.20;3.80;;;;;;;9.01;50.21;97557.69;5028014;28;20489;-69
2023/10/17 00:36:29;;;;;;;4.10;3.70;;;;;;;8.98;50.32;97558.75;5033076;28;20838;-70
2023/10/17 00:39:08;;;;;;;9.03;4.13;;;;;;;9.04;50.37;97546.94;5030555;28;20219;-70
2023/10/17 00:41:50;;;;;;;5.20;4.27;;;;;;;9.04;50.16;97552.16;5030905;28;20430;-68
2023/10/17 00:44:17;;;;;;;6.27;3.90;;;;;;;9.00;50.06;97551.59;5032252;28;20433;-69
2023/10/17 00:46:42;;;;;;;4.30;3.83;;;;;;;8.91;49.90;97555.03;5032219;28;20503;-69
2023/10/17 00:49:10;;;;;;;6.20;4.17;;;;;;;8.86;50.02;97554.59;5032996;28;20481;-69
2023/10/17 00:51:39;;;;;;;7.53;3.90;;;;;;;8.86;50.05;97541.50;5032407;28;20579;-68
2023/10/17 00:54:06;;;;;;;4.30;3.63;;;;;;;8.76;50.11;97539.72;5043820;28;20465;-69
2023/10/17 00:56:31;;;;;;;4.97;4.30;;;;;;;8.75;50.43;97538.06;5038210;28;20461;-68
2023/10/17 00:58:57;;;;;;;7.00;4.53;;;;;;;8.74;50.25;97536.41;5031419;28;20474;-67
2023/10/17 01:01:26;;;;;;;5.80;4.20;;;;;;;8.85;50.05;97525.03;5032219;28;20558;-68
2023/10/17 01:03:54;;;;;;;4.83;4.20;;;;;;;8.84;49.79;97519.91;5035940;28;20823;-69
2023/10/17 01:08:48;;;;;;;4.73;4.27;;;;;;;8.74;50.43;97528.56;5035780;28;20564;-69
2023/10/17 01:11:20;;;;;;;4.60;3.80;;;;;;;8.59;50.34;97529.88;5034156;28;20476;-67
2023/10/17 01:13:56;;;;;;;4.80;4.40;;;;;;;8.64;49.94;97519.00;5041896;28;20223;-70
2023/10/17 01:16:24;;;;;;;5.70;4.10;;;;;;;8.54;50.09;97524.22;5040223;28;20481;-69
2023/10/17 01:18:50;;;;;;;6.33;4.23;;;;;;;8.54;50.40;97534.69;5039225;28;20457;-69
2023/10/17 01:21:20;;;;;;;5.67;4.27;;;;;;;8.56;50.19;97527.53;5031796;28;20423;-70
2023/10/17 01:23:49;;;;;;;6.20;3.97;;;;;;;8.48;50.79;97540.41;5031640;28;20442;-69
2023/10/17 01:26:20;;;;;;;4.50;3.80;;;;;;;8.43;50.47;97533.78;5041659;28;20873;-68
2023/10/17 01:28:47;;;;;;;6.93;5.87;;;;;;;8.38;50.90;97540.34;5034561;28;20470;-70
2023/10/17 01:31:16;;;;;;;11.97;8.73;;;;;;;8.36;50.27;97531.81;5043784;28;20450;-69
2023/10/17 01:33:45;;;;;;;7.07;6.37;;;;;;;8.30;50.50;97530.56;5029149;28;20438;-68
2023/10/17 01:36:12;;;;;;;6.33;5.67;;;;;;;8.27;50.98;97530.81;5029759;28;20513;-68
2023/10/17 01:38:38;;;;;;;6.60;4.60;;;;;;;8.22;51.33;97527.75;5036059;28;20468;-69
2023/10/17 01:41:05;;;;;;;5.07;4.67;;;;;;;8.17;50.99;97517.69;5039032;28;20437;-69
2023/10/17 01:43:31;;;;;;;6.20;4.60;;;;;;;8.14;51.06;97526.63;5033793;28;20434;-69
2023/10/17 01:45:56;;;;;;;8.00;5.53;;;;;;;8.17;50.99;97522.91;5037125;28;20440;-69
2023/10/17 01:48:25;;;;;;;5.60;4.70;;;;;;;8.21;51.03;97520.88;5031292;28;20936;-69
2023/10/17 01:50:51;;;;;;;7.63;5.40;;;;;;;8.19;50.77;97523.63;5043647;28;20191;-68
2023/10/17 01:53:16;;;;;;;7.27;5.80;;;;;;;8.14;51.06;97520.56;5039633;28;20430;-69
2023/10/17 01:55:45;;;;;;;8.90;6.53;;;;;;;8.11;50.74;97526.88;5031321;28;20194;-68
2023/10/17 01:58:15;;;;;;;7.50;6.40;;;;;;;8.24;50.77;97523.22;5040284;28;20206;-69
2023/10/17 02:00:42;;;;;;;6.33;5.70;;;;;;;8.05;50.87;97516.13;5042648;28;20444;-69
2023/10/17 02:03:07;;;;;;;5.77;4.70;;;;;;;8.02;51.52;97514.59;5035191;28;20433;-68
2023/10/17 02:05:36;;;;;;;5.80;4.30;;;;;;;8.11;51.38;97513.81;5035917;28;20437;-70
2023/10/17 02:08:01;;;;;;;6.77;5.70;;;;;;;8.08;51.19;97510.66;5039806;28;20235;-69
2023/10/17 02:10:29;;;;;;;8.77;6.47;;;;;;;8.07;51.47;97512.41;5033526;28;20462;-70
2023/10/17 02:12:55;;;;;;;6.43;5.80;;;;;;;8.09;50.83;97500.06;5028271;28;20187;-69
2023/10/17 02:15:23;;;;;;;7.50;6.00;;;;;;;8.02;51.37;97503.31;5030526;28;20442;-69
2023/10/17 02:17:51;;;;;;;5.97;5.37;;;;;;;7.93;51.62;97500.53;5030577;28;20203;-68
2023/10/17 02:22:55;;;;;;;9.03;5.63;;;;;;;8.00;51.44;97506.88;5041360;28;20430;-68
2023/10/17 02:25:32;;;;;;;4.93;4.10;;;;;;;8.03;51.08;97503.22;5031000;28;22212;-69
2023/10/17 02:27:58;;;;;;;4.97;4.17;;;;;;;7.97;51.15;97512.38;5030061;28;20476;-68
2023/10/17 02:30:24;;;;;;;6.00;5.40;;;;;;;8.04;51.16;97509.25;5034089;28;20434;-69
2023/10/17 02:32:53;;;;;;;6.50;5.57;;;;;;;8.06;51.46;97517.78;5028784;28;20496;-70
2023/10/17 02:35:36;;;;;;;6.13;5.10;;;;;;;8.03;51.51;97505.81;5030997;28;20187;-69
2023/10/17 02:38:03;;;;;;;5.27;4.37;;;;;;;8.06;51.52;97512.56;5030189;28;20454;-69
2023/10/17 02:40:34;;;;;;;5.60;4.63;;;;;;;8.00;51.53;97527.75;5026152;28;20946;-69
2023/10/17 02:43:02;;;;;;;10.90;5.13;;;;;;;7.96;52.08;97533.38;5034726;28;20427;-70
2023/10/17 02:45:27;;;;;;;6.63;5.20;;;;;;;7.95;51.42;97536.94;5034682;28;20431;-68
2023/10/17 02:47:54;;;;;;;7.90;6.27;;;;;;;8.01;51.14;97541.66;5029693;28;20489;-69
2023/10/17 02:52:59;;;;;;;7.60;6.90;;;;;;;7.91;51.43;97535.56;5026020;28;20975;-69
2023/10/17 02:55:28;;;;;;;7.00;5.93;;;;;;;7.95;51.16;97539.53;5023461;28;20453;-69
2023/10/17 02:57:54;;;;;;;9.13;6.20;;;;;;;7.93;51.14;97551.91;5022300;28;20461;-68
2023/10/17 03:00:25;;;;;;;7.63;6.17;;;;;;;7.93;51.58;97539.69;5024556;28;20813;-68
2023/10/17 03:02:58;;;;;;;8.77;6.60;;;;;;;7.80;51.53;97542.50;5035703;28;20434;-68
2023/10/17 03:05:24;;;;;;;6.90;5.90;;;;;;;7.83;51.75;97526.56;5027843;28;20475;-68
2023/10/17 03:07:50;;;;;;;9.87;6.93;;;;;;;7.86;51.88;97530.72;5030749;28;20469;-68
2023/10/17 03:10:21;;;;;;;12.63;6.43;;;;;;;7.81;51.82;97525.84;5033393;28;20434;-70
2023/10/17 03:12:55;;;;;;;6.00;5.40;;;;;;;7.83;52.53;97529.16;5025047;28;20222;-69
2023/10/17 03:15:23;;;;;;;8.80;6.60;;;;;;;7.91;51.89;97527.72;5039173;28;20798;-68
2023/10/17 03:17:53;;;;;;;8.63;7.00;;;;;;;7.88;51.68;97515.72;5033934;28;20834;-69
2023/10/17 03:20:21;;;;;;;8.20;6.70;;;;;;;7.92;51.76;97514.53;5027051;28;20458;-68
2023/10/17 03:22:46;;;;;;;10.67;8.27;;;;;;;7.87;51.67;97516.72;5020921;28;20932;-68
2023/10/17 03:25:20;;;;;;;8.20;6.83;;;;;;;7.89;51.57;97524.41;5031171;28;20521;-68
2023/10/17 03:27:49;;;;;;;9.17;7.20;;;;;;;7.78;51.73;97520.91;5040098;28;20216;-68
2023/10/17 03:30:19;;;;;;;7.70;6.87;;;;;;;7.86;51.71;97522.03;5033233;28;20977;-71
2023/10/17 03:38:30;;;;;;;8.50;5.87;;;;;;;7.90;52.02;97520.84;5037941;28;20470;-68
2023/10/17 03:41:03;;;;;;;6.40;5.10;;;;;;;7.88;52.41;97520.13;5038542;28;20524;-70
2023/10/17 03:43:37;;;;;;;5.93;5.33;;;;;;;7.86;52.27;97519.44;5033949;28;20430;-70
2023/10/17 03:46:06;;;;;;;9.13;6.77;;;;;;;7.80;51.90;97513.78;5031423;28;20487;-69
2023/10/17 03:48:36;;;;;;;8.17;6.33;;;;;;;7.72;53.09;97512.75;5027109;28;20549;-69
2023/10/17 03:51:08;;;;;;;7.77;6.60;;;;;;;7.83;52.78;97504.88;5030397;28;21020;-69
2023/10/17 03:54:18;;;;;;;5.77;5.23;;;;;;;7.88;52.31;97512.31;5028706;28;20435;-70
2023/10/17 03:56:25;;;;;;;5.93;5.33;;;;;;;7.81;52.89;97518.03;5025287;28;20492;-69
2023/10/17 03:59:16;;;;;;;12.13;5.23;;;;;;;7.91;52.36;97512.06;5029156;28;20499;-70
2023/10/17 04:01:48;;;;;;;6.87;5.10;;;;;;;7.78;53.03;97507.88;5043057;28;20508;-69
2023/10/17 04:04:18;;;;;;;8.60;5.77;;;;;;;7.87;52.65;97500.22;5028375;28;20935;-70
2023/10/17 04:06:48;;;;;;;8.57;6.00;;;;;;;7.89;53.08;97508.75;5018064;28;20773;-68
2023/10/17 04:09:26;;;;;;;7.73;5.87;;;;;;;7.89;52.88;97504.34;5023252;28;20507;-68
2023/10/17 04:12:06;;;;;;;8.53;5.67;;;;;;;7.91;52.78;97506.84;5029274;28;20429;-69
2023/10/17 04:14:34;;;;;;;7.03;5.70;;;;;;;7.86;52.97;97504.63;5039297;28;20473;-68
2023/10/17 04:17:02;;;;;;;8.10;6.30;;;;;;;7.84;52.99;97507.34;5027331;28;20534;-70
2023/10/17 04:19:30;;;;;;;8.30;5.50;;;;;;;7.86;53.06;97509.00;5032439;28;20426;-69
2023/10/17 04:27:06;;;;;;;9.93;5.23;;;;;;;7.88;53.77;97504.47;5028576;28;20238;-69
2023/10/17 04:29:34;;;;;;;6.50;5.23;;;;;;;7.91;53.52;97506.84;5041726;28;20495;-68
2023/10/17 04:32:01;;;;;;;7.10;5.20;;;;;;;7.88;53.58;97494.03;5027724;28;20496;-69
2023/10/17 04:34:28;;;;;;;5.90;5.00;;;;;;;7.93;54.30;97495.31;5033989;28;20477;-69
2023/10/17 04:36:56;;;;;;;7.13;5.40;;;;;;;7.95;54.15;97487.34;5034662;28;20795;-69
2023/10/17 04:39:48;;;;;;;7.40;5.87;;;;;;;7.96;54.16;97483.78;5034987;28;20434;-69
2023/10/17 04:42:19;;;;;;;7.57;5.77;;;;;;;7.99;54.31;97479.16;5039175;28;21034;-69
2023/10/17 04:44:52;;;;;;;6.50;5.60;;;;;;;8.01;54.41;97473.78;5028716;28;20834;-69
2023/10/17 04:49:50;;;;;;;6.57;5.63;;;;;;;8.02;54.15;97474.59;5031211;28;20441;-68
2023/10/17 04:52:21;;;;;;;7.63;6.60;;;;;;;7.95;54.73;97469.06;5033512;28;20435;-67
2023/10/17 04:54:48;;;;;;;10.03;6.77;;;;;;;7.98;54.17;97474.88;5034432;28;20512;-68
2023/10/17 04:57:18;;;;;;;7.87;6.30;;;;;;;8.06;54.28;97476.84;5035710;28;20422;-68
2023/10/17 05:07:30;;;;;;;11.00;8.03;;;;;;;7.96;54.78;97462.91;5040415;28;20468;-68
2023/10/17 06:18:26;;;;;;;13.47;10.23;;;;;;;8.41;55.94;97483.47;5038323;28;20461;-68
2023/10/17 06:34:16;;;;;;;13.13;10.30;;;;;;;8.53;55.89;97504.28;5030836;28;20499;-68
2023/10/17 06:36:43;;;;;;;14.40;11.00;;;;;;;8.63;55.86;97505.13;5029551;28;20510;-68
2023/10/17 06:39:15;;;;;;;13.60;9.90;;;;;;;8.62;55.71;97495.66;5029760;28;20805;-68
2023/10/17 06:41:41;;;;;;;12.10;9.27;;;;;;;8.68;55.87;97500.34;5032748;28;20941;-68
2023/10/17 06:44:09;;;;;;;15.17;9.77;;;;;;;8.70;55.11;97502.81;5034158;28;20418;-69
2023/10/17 06:46:48;;;;;;;13.03;9.47;;;;;;;8.68;55.77;97502.97;5034715;28;20286;-69
2023/10/17 06:49:30;;;;;;;10.43;9.33;;;;;;;8.76;55.50;97513.56;5017557;28;20465;-69
2023/10/17 06:54:41;;;;;;;15.60;9.80;;;;;;;8.89;55.68;97512.50;5038699;28;20431;-68
2023/10/17 06:57:19;;;;;;;19.30;9.20;;;;;;;8.84;55.86;97506.84;5030099;28;20427;-69
2023/10/17 06:59:51;;;;;;;9.87;8.57;;;;;;;8.85;56.16;97508.50;5025367;28;20431;-69
2023/10/17 07:02:28;;;;;;;14.43;9.40;;;;;;;8.93;56.20;97508.66;5036063;28;20435;-69
2023/10/17 07:05:01;;;;;;;12.10;9.00;;;;;;;9.04;55.91;97505.94;5024535;28;20540;-69
2023/10/17 07:07:40;;;;;;;12.30;9.27;;;;;;;9.15;55.92;97501.53;5029421;28;20978;-70
2023/10/17 07:13:49;;;;;;;12.03;8.80;;;;;;;9.22;55.50;97497.41;5027431;28;20583;-69
2023/10/17 07:16:16;;;;;;;9.00;7.77;;;;;;;9.27;55.59;97500.44;5028752;28;20438;-70
2023/10/17 07:18:46;;;;;;;12.70;8.20;;;;;;;9.34;55.78;97500.72;5034240;28;20536;-69
2023/10/17 07:23:44;;;;;;;10.23;8.20;;;;;;;9.43;54.42;97492.06;5035808;28;20809;-68
2023/10/17 07:26:17;;;;;;;13.00;7.67;;;;;;;9.45;54.28;97487.50;5035166;28;20939;-68
2023/10/17 07:28:44;;;;;;;8.80;7.50;;;;;;;9.57;54.18;97490.81;5028526;28;20574;-69
2023/10/17 07:31:13;;;;;;;9.70;6.90;;;;;;;9.58;53.59;97491.63;5036541;28;20432;-68
2023/10/17 07:33:42;;;;;;;9.30;7.23;;;;;;;9.57;54.04;97484.75;5031479;28;21081;-70
2023/10/17 07:36:15;;;;;;;8.10;6.83;;;;;;;9.53;53.66;97484.22;5028053;28;20476;-69
2023/10/17 07:38:43;;;;;;;10.43;7.33;;;;;;;9.58;53.72;97486.41;5027414;28;21004;-69
2023/10/17 07:41:32;;;;;;;7.90;6.70;;;;;;;9.67;53.52;97486.41;5029227;28;20427;-68
2023/10/17 07:43:59;;;;;;;8.67;7.20;;;;;;;9.59;53.63;97488.06;5035897;28;20442;-69
2023/10/17 07:46:29;;;;;;;10.33;7.23;;;;;;;9.73;52.71;97489.41;5040354;28;20425;-69
2023/10/17 07:49:04;;;;;;;13.60;6.70;;;;;;;9.83;53.00;97483.19;5035760;28;20564;-70
2023/10/17 07:51:29;;;;;;;15.47;7.77;;;;;;;9.93;53.02;97474.50;5030740;28;20445;-70
2023/10/17 07:53:55;;;;;;;12.30;8.13;;;;;;;10.03;52.20;97477.91;5025742;28;20435;-69
2023/10/17 07:56:21;;;;;;;13.20;7.63;;;;;;;10.18;52.68;97483.53;5043456;28;20187;-70
2023/10/17 07:59:05;;;;;;;10.33;8.20;;;;;;;10.32;52.85;97468.31;5033567;28;20238;-69
2023/10/17 08:01:59;;;;;;;12.97;8.00;;;;;;;10.32;51.98;97473.56;5033032;28;20426;-70
2023/10/17 08:06:43;;;;;;;9.70;7.70;;;;;;;10.66;52.17;97467.78;5029295;28;20923;-69
2023/10/17 08:11:51;;;;;;;11.43;8.60;;;;;;;10.74;50.96;97457.38;5028488;28;20436;-69
2023/10/17 08:14:31;;;;;;;15.90;8.50;;;;;;;10.89;50.63;97460.34;5041014;28;20978;-70
2023/10/17 08:16:58;;;;;;;11.53;7.90;;;;;;;11.12;50.36;97460.72;5026641;28;20425;-69
2023/10/17 08:19:23;;;;;;;13.83;8.83;;;;;;;11.24;49.70;97465.72;5026726;28;20451;-70
2023/10/17 08:22:25;;;;;;;14.73;8.53;;;;;;;11.43;50.00;97457.72;5034582;28;20427;-69
2023/10/17 08:24:43;;;;;;;13.30;8.80;;;;;;;11.48;49.18;97452.81;5033036;28;20195;-68
2023/10/17 08:29:43;;;;;;;10.20;8.50;;;;;;;11.56;48.69;97456.50;5028078;28;20939;-69
2023/10/17 08:37:45;;;;;;;13.80;8.77;;;;;;;11.58;49.00;97459.78;5032260;28;20474;-69
2023/10/17 08:40:31;;;;;;;13.47;10.23;;;;;;;11.62;48.76;97455.88;5024136;28;20541;-69
2023/10/17 08:43:03;;;;;;;14.03;9.90;;;;;;;11.75;48.81;97458.13;5027750;28;20454;-68
2023/10/17 08:45:37;;;;;;;14.63;10.13;;;;;;;11.68;48.50;97466.59;5026669;28;21295;-69
2023/10/17 08:48:05;;;;;;;15.23;9.60;;;;;;;11.55;48.41;97466.16;5039127;28;20453;-67
2023/10/17 08:50:37;;;;;;;14.60;10.00;;;;;;;11.52;48.43;97467.28;5030984;28;20525;-68
2023/10/17 08:53:07;;;;;;;12.27;9.30;;;;;;;11.56;48.98;97461.75;5031034;28;20410;-70
2023/10/17 08:55:32;;;;;;;13.20;9.60;;;;;;;11.71;49.33;97460.22;5039835;28;20438;-69
2023/10/17 08:57:59;;;;;;;15.37;10.30;;;;;;;11.78;48.57;97463.88;5029431;28;20442;-69
2023/10/17 09:03:11;;;;;;;13.57;9.10;;;;;;;11.90;48.59;97461.00;5031209;28;20441;-69
2023/10/17 09:05:58;;;;;;;13.70;9.03;;;;;;;12.02;48.57;97454.53;5039725;28;20429;-69
2023/10/17 09:08:43;;;;;;;15.27;10.00;;;;;;;12.13;48.35;97453.44;5031960;28;20465;-70
2023/10/17 09:11:13;;;;;;;12.13;9.97;;;;;;;12.26;48.29;97460.91;5037142;28;20423;-69
2023/10/17 09:14:11;;;;;;;14.70;10.20;;;;;;;12.36;47.89;97451.09;5032748;28;20429;-69
2023/10/17 09:16:34;;;;;;;15.87;10.73;;;;;;;12.51;47.99;97442.59;5038681;28;20422;-69
2023/10/17 09:19:09;;;;;;;17.73;10.40;;;;;;;12.62;47.38;97439.69;5031575;28;20438;-69
2023/10/17 09:21:35;;;;;;;15.43;10.37;;;;;;;12.77;47.02;97433.81;5040348;28;20507;-68
2023/10/17 09:24:00;;;;;;;16.40;10.67;;;;;;;12.87;47.22;97432.69;5030921;28;20430;-70
2023/10/17 09:26:26;;;;;;;15.07;10.63;;;;;;;12.97;47.24;97434.34;5045470;28;20606;-69
2023/10/17 09:29:00;;;;;;;15.63;10.57;;;;;;;13.13;46.98;97438.81;5034064;28;20524;-69
2023/10/17 09:31:26;;;;;;;12.87;9.87;;;;;;;13.24;46.20;97443.75;5034869;28;20191;-70
2023/10/17 09:33:53;;;;;;;16.53;10.60;;;;;;;13.37;46.07;97441.44;5030983;28;20513;-69
2023/10/17 09:36:19;;;;;;;13.17;10.70;;;;;;;13.50;45.74;97440.16;5032917;28;20430;-70
2023/10/17 09:38:45;;;;;;;15.77;11.47;;;;;;;13.67;45.41;97444.44;5043658;28;20422;-68
2023/10/17 09:41:17;;;;;;;12.80;10.60;;;;;;;13.78;44.72;97447.72;5039710;28;20592;-68
2023/10/17 09:43:49;;;;;;;20.03;11.30;;;;;;;13.88;44.43;97451.00;5044409;28;21070;-68
2023/10/17 09:46:14;;;;;;;16.83;11.20;;;;;;;14.06;44.53;97463.16;5031109;28;20465;-69
2023/10/17 09:48:42;;;;;;;15.60;11.70;;;;;;;14.22;44.27;97447.31;5031281;28;20556;-70
2023/10/17 09:51:13;;;;;;;17.27;11.90;;;;;;;14.21;43.23;97453.56;5031037;28;20191;-67
2023/10/17 09:53:39;;;;;;;15.00;11.47;;;;;;;14.28;43.84;97449.25;5037972;28;20414;-69
2023/10/17 09:56:09;;;;;;;15.90;10.53;;;;;;;14.38;44.11;97442.94;5039127;28;20430;-70
2023/10/17 09:58:40;;;;;;;14.40;11.13;;;;;;;14.44;44.22;97442.28;5030000;28;20474;-69
2023/10/17 10:01:13;;;;;;;16.00;11.83;;;;;;;14.48;43.28;97442.75;5037248;28;20484;-69
2023/10/17 10:03:40;;;;;;;15.70;11.03;;;;;;;14.40;43.76;97446.25;5027255;28;20433;-69
2023/10/17 10:06:30;;;;;;;15.40;12.10;;;;;;;14.44;43.86;97442.28;5033512;28;20425;-69
2023/10/17 10:09:17;;;;;;;14.67;10.93;;;;;;;14.35;43.06;97443.31;5046156;28;20465;-68
2023/10/17 10:11:52;;;;;;;24.17;13.30;;;;;;;13.92;43.87;97447.03;5029369;28;20935;-70
2023/10/17 10:14:23;;;;;;;15.77;11.90;;;;;;;13.69;44.85;97446.09;5033968;28;20445;-68
2023/10/17 10:16:54;;;;;;;18.57;12.80;;;;;;;13.97;45.13;97444.75;5031120;28;20426;-67
2023/10/17 10:19:22;;;;;;;16.23;12.07;;;;;;;14.16;44.27;97442.69;5043041;28;20812;-70
2023/10/17 10:21:55;;;;;;;17.00;11.90;;;;;;;14.45;44.36;97441.28;5031969;28;20426;-68
2023/10/17 10:24:26;;;;;;;18.53;12.07;;;;;;;14.76;44.26;97443.13;5040224;28;20460;-70
2023/10/17 10:27:10;;;;;;;15.40;12.03;;;;;;;14.98;43.10;97440.72;5032234;28;20562;-70
2023/10/17 10:29:36;;;;;;;16.77;11.43;;;;;;;15.16;42.91;97435.97;5044320;28;20472;-67
2023/10/17 10:32:07;;;;;;;18.50;12.40;;;;;;;15.09;42.11;97435.03;5046410;28;21168;-69
2023/10/17 10:34:37;;;;;;;15.60;11.30;;;;;;;15.12;42.32;97428.59;5036882;28;20430;-69
2023/10/17 10:37:03;;;;;;;16.03;11.03;;;;;;;15.10;42.79;97428.78;5031965;28;20520;-69
2023/10/17 10:39:30;;;;;;;18.57;12.77;;;;;;;15.15;42.55;97426.41;5041880;28;20962;-69
2023/10/17 10:42:00;;;;;;;15.83;12.87;;;;;;;15.12;42.77;97421.47;5040061;28;20452;-69
2023/10/17 10:44:26;;;;;;;16.17;11.77;;;;;;;15.10;42.94;97415.56;5030705;28;20981;-69
2023/10/17 10:46:53;;;;;;;16.17;11.87;;;;;;;15.17;43.18;97420.97;5037423;28;20428;-69
2023/10/17 10:49:28;;;;;;;16.40;11.40;;;;;;;15.17;43.00;97415.69;5039262;28;20456;-70
2023/10/17 10:51:57;;;;;;;17.70;11.90;;;;;;;15.16;42.67;97419.31;5032932;28;20529;-69
2023/10/17 10:54:27;;;;;;;16.73;12.10;;;;;;;15.12;42.89;97424.13;5039175;28;20883;-70
2023/10/17 10:56:53;;;;;;;16.60;11.90;;;;;;;15.16;42.81;97425.41;5033382;28;20913;-69
2023/10/17 10:59:23;;;;;;;16.20;12.00;;;;;;;15.15;42.82;97429.06;5034453;28;20481;-69
2023/10/17 11:01:49;;;;;;;13.83;11.10;;;;;;;15.09;42.68;97434.22;5043060;28;20205;-69
2023/10/17 11:04:14;;;;;;;19.37;12.10;;;;;;;15.15;42.97;97418.50;5027806;28;20430;-68
2023/10/17 11:06:41;;;;;;;14.53;11.40;;;;;;;15.25;42.99;97417.44;5029917;28;20427;-69
2023/10/17 11:09:09;;;;;;;14.00;11.23;;;;;;;15.30;43.02;97418.56;5037376;28;20215;-69
2023/10/17 11:11:49;;;;;;;14.13;10.33;;;;;;;15.45;42.48;97415.97;5038235;28;20514;-69
2023/10/17 11:14:18;;;;;;;13.30;10.37;;;;;;;15.55;41.72;97417.53;5029571;28;20798;-69
2023/10/17 11:16:46;;;;;;;17.53;11.17;;;;;;;15.61;41.71;97417.63;5029584;28;20446;-70
2023/10/17 11:19:19;;;;;;;15.90;11.20;;;;;;;15.60;41.59;97415.97;5037300;28;20573;-68
2023/10/17 11:21:52;;;;;;;15.83;11.10;;;;;;;15.52;41.77;97411.59;5041448;28;20938;-68
2023/10/17 11:24:17;;;;;;;16.80;11.23;;;;;;;15.49;41.66;97406.69;5036636;28;20416;-70
2023/10/17 11:26:44;;;;;;;17.40;11.23;;;;;;;15.39;41.82;97403.44;5035810;28;20410;-70
2023/10/17 11:29:09;;;;;;;19.20;10.80;;;;;;;15.39;42.11;97407.94;5039428;28;20222;-69
2023/10/17 11:31:35;;;;;;;15.23;11.00;;;;;;;15.41;42.32;97408.56;5033778;28;20506;-69
2023/10/17 11:34:12;;;;;;;14.63;10.00;;;;;;;15.44;42.41;97401.09;5030376;28;20188;-69
2023/10/17 11:36:45;;;;;;;14.77;11.30;;;;;;;15.44;42.40;97390.53;5032192;28;20765;-68
2023/10/17 11:39:15;;;;;;;16.47;11.40;;;;;;;15.48;42.43;97398.94;5030631;28;20446;-70
2023/10/17 11:41:47;;;;;;;18.90;10.93;;;;;;;15.48;42.42;97397.13;5040615;28;21049;-68
2023/10/17 11:44:15;;;;;;;16.40;11.10;;;;;;;15.47;42.50;97394.63;5011247;28;20874;-70
2023/10/17 11:46:49;;;;;;;16.70;10.50;;;;;;;15.50;42.66;97391.66;5029832;28;21018;-69
2023/10/17 11:49:26;;;;;;;14.37;10.80;;;;;;;15.47;42.71;97390.19;5027397;28;20516;-70
2023/10/17 11:52:09;;;;;;;15.93;11.13;;;;;;;15.45;42.64;97386.06;5038822;28;20430;-69
2023/10/17 11:55:00;;;;;;;14.40;10.83;;;;;;;15.44;42.97;97385.25;5022705;28;20426;-68
2023/10/17 11:57:27;;;;;;;13.80;10.40;;;;;;;15.47;42.94;97382.28;5036907;28;20414;-69
2023/10/17 12:02:49;;;;;;;13.30;11.20;;;;;;;15.45;43.29;97380.78;5033080;28;20826;-68
2023/10/17 12:05:19;;;;;;;15.70;11.17;;;;;;;15.45;43.50;97381.63;5029392;28;20814;-68
2023/10/17 12:07:49;;;;;;;14.30;11.20;;;;;;;15.47;43.68;97384.06;5028624;28;21020;-68
2023/10/17 12:10:15;;;;;;;16.00;10.50;;;;;;;15.42;43.39;97384.63;5028297;28;20458;-69
2023/10/17 12:12:40;;;;;;;17.80;11.50;;;;;;;15.39;43.46;97373.59;5035434;28;20421;-69
2023/10/17 12:15:06;;;;;;;12.47;10.07;;;;;;;15.40;43.70;97378.69;5028840;28;20449;-68
2023/10/17 12:17:31;;;;;;;13.97;11.17;;;;;;;15.42;43.71;97370.59;5029589;28;20186;-69
2023/10/17 12:19:57;;;;;;;13.80;10.90;;;;;;;15.49;43.83;97367.06;5036361;28;20270;-68
2023/10/17 12:22:22;;;;;;;15.20;10.10;;;;;;;15.59;43.71;97365.97;5028208;28;20234;-69
2023/10/17 12:24:48;;;;;;;15.20;11.50;;;;;;;15.68;43.45;97364.88;5036721;28;20564;-69
2023/10/17 12:27:13;;;;;;;15.03;11.00;;;;;;;15.76;43.53;97356.88;5039220;28;20633;-67
2023/10/17 12:29:40;;;;;;;14.30;10.67;;;;;;;15.89;43.29;97356.28;5033096;28;20274;-69
2023/10/17 12:32:05;;;;;;;14.10;10.87;;;;;;;15.93;42.96;97352.28;5025962;28;20183;-69
2023/10/17 12:34:32;;;;;;;14.80;10.37;;;;;;;15.96;43.35;97345.78;5035718;28;20430;-69
2023/10/17 12:36:57;;;;;;;14.97;10.87;;;;;;;15.92;42.96;97349.81;5036384;28;20679;-68
2023/10/17 12:39:23;;;;;;;14.30;10.63;;;;;;;15.92;43.00;97348.00;5028377;28;20489;-68
2023/10/17 12:41:50;;;;;;;18.47;10.77;;;;;;;15.94;43.29;97353.09;5037469;28;20179;-68
2023/10/17 12:44:17;;;;;;;14.10;11.60;;;;;;;15.86;43.26;97339.97;5030515;28;20176;-69
2023/10/17 12:46:43;;;;;;;14.23;10.20;;;;;;;15.72;43.64;97350.31;5034412;28;20415;-69
2023/10/17 12:49:11;;;;;;;15.87;10.57;;;;;;;15.83;43.76;97343.75;5032053;28;20462;-68
2023/10/17 12:51:38;;;;;;;19.87;11.07;;;;;;;15.81;43.65;97336.00;5036731;28;20950;-68
2023/10/17 12:54:03;;;;;;;15.10;10.93;;;;;;;15.81;44.07;97327.28;5033455;28;20461;-68
2023/10/17 12:56:29;;;;;;;14.83;10.93;;;;;;;15.82;43.97;97327.09;5030577;28;20915;-69
2023/10/17 12:58:54;;;;;;;15.67;11.03;;;;;;;15.76;43.96;97324.34;5028390;28;20195;-70
2023/10/17 13:01:24;;;;;;;12.60;10.77;;;;;;;15.59;44.29;97329.81;5028884;28;20216;-68
2023/10/17 13:03:53;;;;;;;13.20;11.10;;;;;;;15.55;44.51;97327.72;5024469;28;20560;-69
2023/10/17 13:06:20;;;;;;;12.30;10.77;;;;;;;15.54;44.46;97326.06;5028114;28;20947;-71
2023/10/17 13:08:46;;;;;;;14.03;10.90;;;;;;;15.57;44.60;97331.00;5033104;28;20458;-69
2023/10/17 13:11:12;;;;;;;15.53;11.80;;;;;;;15.59;44.65;97339.56;5030252;28;20449;-68
2023/10/17 13:13:39;;;;;;;13.37;11.17;;;;;;;15.56;44.89;97332.84;5028784;28;20456;-69
2023/10/17 13:16:05;;;;;;;14.03;11.47;;;;;;;15.57;44.67;97321.25;5031526;28;20452;-70
2023/10/17 13:18:33;;;;;;;14.87;10.90;;;;;;;15.56;44.91;97324.91;5027475;28;20491;-70
2023/10/17 13:21:04;;;;;;;17.27;11.50;;;;;;;15.51;44.99;97317.50;5028656;28;20426;-70
2023/10/17 13:23:31;;;;;;;13.60;10.73;;;;;;;15.51;44.93;97317.50;5035309;28;20509;-69
2023/10/17 13:25:58;;;;;;;15.90;10.57;;;;;;;15.52;44.83;97313.88;5029793;28;21004;-70
2023/10/17 13:28:24;;;;;;;16.67;11.57;;;;;;;15.53;45.15;97322.63;5027753;28;20486;-70
2023/10/17 13:30:50;;;;;;;16.47;11.70;;;;;;;15.52;44.90;97305.94;5028328;28;20883;-69
2023/10/17 13:33:15;;;;;;;15.87;11.80;;;;;;;15.56;45.25;97305.59;5020555;28;20430;-69
2023/10/17 13:35:41;;;;;;;13.70;11.57;;;;;;;15.57;45.05;97308.03;5028312;28;20180;-69
2023/10/17 13:38:07;;;;;;;18.70;11.87;;;;;;;15.60;44.96;97304.22;5040414;28;20337;-68
2023/10/17 13:40:32;;;;;;;16.80;11.83;;;;;;;15.58;45.05;97311.50;5030773;28;20254;-69
2023/10/17 13:43:00;;;;;;;16.40;11.03;;;;;;;15.64;45.41;97294.91;5033483;28;20594;-69
2023/10/17 13:45:27;;;;;;;18.30;12.00;;;;;;;15.65;45.28;97291.28;5030750;28;20190;-69
2023/10/17 13:47:53;;;;;;;14.73;10.87;;;;;;;15.66;45.43;97293.75;5033135;28;20878;-69
2023/10/17 13:50:19;;;;;;;15.13;11.57;;;;;;;15.69;45.22;97297.03;5039306;28;20486;-68
2023/10/17 13:52:49;;;;;;;13.47;10.90;;;;;;;15.72;45.18;97296.66;5031939;28;20488;-69
2023/10/17 13:55:25;;;;;;;15.10;12.20;;;;;;;15.70;44.99;97296.84;5032850;28;20839;-69
2023/10/17 13:57:55;;;;;;;13.23;10.23;;;;;;;15.73;45.09;97304.41;5025454;28;20484;-69
2023/10/17 14:00:24;;;;;;;13.83;10.70;;;;;;;15.77;45.15;97303.03;5036687;28;20953;-69